sensor_id;sensor_type;location;lat;lon;timestamp;P1;durP1;ratioP1;P2;durP2;ratioP2
67902;SDS011;54708;43.612;1.568;2023-02-10T00:01:32;33.22;;;20.30;;
67902;SDS011;54708;43.612;1.568;2023-02-10T00:03:58;30.90;;;19.92;;
67902;SDS011;54708;43.612;1.568;2023-02-10T00:06:24;29.73;;;21.73;;
67902;SDS011;54708;43.612;1.568;2023-02-10T00:08:51;31.98;;;21.75;;
67902;SDS011;54708;43.612;1.568;2023-02-10T00:11:18;30.58;;;20.45;;
67902;SDS011;54708;43.612;1.568;2023-02-10T00:13:44;29.15;;;20.88;;
67902;SDS011;54708;43.612;1.568;2023-02-10T00:16:11;32.95;;;21.05;;
67902;SDS011;54708;43.612;1.568;2023-02-10T00:18:38;35.58;;;21.70;;
67902;SDS011;54708;43.612;1.568;2023-02-10T00:21:08;35.55;;;21.55;;
67902;SDS011;54708;43.612;1.568;2023-02-10T00:23:42;35.28;;;20.63;;
67902;SDS011;54708;43.612;1.568;2023-02-10T00:26:10;33.25;;;21.45;;
67902;SDS011;54708;43.612;1.568;2023-02-10T00:28:36;34.63;;;19.58;;
67902;SDS011;54708;43.612;1.568;2023-02-10T00:31:09;34.33;;;20.42;;
67902;SDS011;54708;43.612;1.568;2023-02-10T00:33:38;31.77;;;19.70;;
67902;SDS011;54708;43.612;1.568;2023-02-10T00:36:05;31.98;;;18.50;;
67902;SDS011;54708;43.612;1.568;2023-02-10T00:38:34;30.10;;;19.60;;
67902;SDS011;54708;43.612;1.568;2023-02-10T00:41:04;31.52;;;18.58;;
67902;SDS011;54708;43.612;1.568;2023-02-10T00:43:33;32.00;;;18.48;;
67902;SDS011;54708;43.612;1.568;2023-02-10T00:45:59;27.92;;;16.23;;
67902;SDS011;54708;43.612;1.568;2023-02-10T00:48:25;33.28;;;17.20;;
67902;SDS011;54708;43.612;1.568;2023-02-10T00:50:50;31.50;;;17.75;;
67902;SDS011;54708;43.612;1.568;2023-02-10T00:53:16;32.65;;;17.77;;
67902;SDS011;54708;43.612;1.568;2023-02-10T00:55:41;23.48;;;15.98;;
67902;SDS011;54708;43.612;1.568;2023-02-10T00:58:07;28.95;;;17.70;;
67902;SDS011;54708;43.612;1.568;2023-02-10T01:00:32;32.03;;;17.15;;
67902;SDS011;54708;43.612;1.568;2023-02-10T01:02:57;32.70;;;17.00;;
67902;SDS011;54708;43.612;1.568;2023-02-10T01:05:23;29.25;;;17.92;;
67902;SDS011;54708;43.612;1.568;2023-02-10T01:07:48;30.48;;;19.60;;
67902;SDS011;54708;43.612;1.568;2023-02-10T01:10:13;30.33;;;19.42;;
67902;SDS011;54708;43.612;1.568;2023-02-10T01:12:39;27.77;;;19.13;;
67902;SDS011;54708;43.612;1.568;2023-02-10T01:15:04;34.00;;;18.77;;
67902;SDS011;54708;43.612;1.568;2023-02-10T01:17:30;37.83;;;20.60;;
67902;SDS011;54708;43.612;1.568;2023-02-10T01:19:56;27.05;;;18.02;;
67902;SDS011;54708;43.612;1.568;2023-02-10T01:22:21;22.98;;;16.90;;
67902;SDS011;54708;43.612;1.568;2023-02-10T01:24:47;28.95;;;17.80;;
67902;SDS011;54708;43.612;1.568;2023-02-10T01:27:12;30.00;;;18.92;;
67902;SDS011;54708;43.612;1.568;2023-02-10T01:29:38;34.80;;;19.83;;
67902;SDS011;54708;43.612;1.568;2023-02-10T01:32:03;35.30;;;20.20;;
67902;SDS011;54708;43.612;1.568;2023-02-10T01:34:28;30.08;;;17.98;;
67902;SDS011;54708;43.612;1.568;2023-02-10T01:36:54;30.80;;;19.80;;
67902;SDS011;54708;43.612;1.568;2023-02-10T01:39:19;30.95;;;19.23;;
67902;SDS011;54708;43.612;1.568;2023-02-10T01:41:44;28.33;;;18.52;;
67902;SDS011;54708;43.612;1.568;2023-02-10T01:46:44;32.53;;;17.35;;
67902;SDS011;54708;43.612;1.568;2023-02-10T01:49:10;28.60;;;18.05;;
67902;SDS011;54708;43.612;1.568;2023-02-10T01:54:13;34.33;;;18.60;;
67902;SDS011;54708;43.612;1.568;2023-02-10T01:56:40;31.40;;;17.13;;
67902;SDS011;54708;43.612;1.568;2023-02-10T01:59:06;29.52;;;19.23;;
67902;SDS011;54708;43.612;1.568;2023-02-10T02:01:31;37.78;;;19.05;;
67902;SDS011;54708;43.612;1.568;2023-02-10T02:03:57;25.20;;;16.38;;
67902;SDS011;54708;43.612;1.568;2023-02-10T02:06:23;30.33;;;18.63;;
67902;SDS011;54708;43.612;1.568;2023-02-10T02:08:48;25.58;;;16.67;;
67902;SDS011;54708;43.612;1.568;2023-02-10T02:14:11;30.55;;;19.30;;
67902;SDS011;54708;43.612;1.568;2023-02-10T02:32:54;28.65;;;19.90;;
67902;SDS011;54708;43.612;1.568;2023-02-10T02:35:34;33.30;;;18.35;;
67902;SDS011;54708;43.612;1.568;2023-02-10T02:38:04;31.45;;;18.42;;
67902;SDS011;54708;43.612;1.568;2023-02-10T02:40:29;27.65;;;17.17;;
67902;SDS011;54708;43.612;1.568;2023-02-10T02:42:54;32.15;;;18.05;;
67902;SDS011;54708;43.612;1.568;2023-02-10T02:45:21;28.20;;;17.63;;
67902;SDS011;54708;43.612;1.568;2023-02-10T02:54:20;29.10;;;17.60;;
67902;SDS011;54708;43.612;1.568;2023-02-10T02:57:06;26.83;;;15.93;;
67902;SDS011;54708;43.612;1.568;2023-02-10T02:59:40;28.95;;;17.27;;
67902;SDS011;54708;43.612;1.568;2023-02-10T03:02:09;37.72;;;19.40;;
67902;SDS011;54708;43.612;1.568;2023-02-10T03:04:37;34.13;;;18.83;;
67902;SDS011;54708;43.612;1.568;2023-02-10T03:07:04;32.30;;;18.63;;
67902;SDS011;54708;43.612;1.568;2023-02-10T03:09:30;40.70;;;21.50;;
67902;SDS011;54708;43.612;1.568;2023-02-10T03:11:55;35.40;;;20.55;;
67902;SDS011;54708;43.612;1.568;2023-02-10T03:14:21;32.60;;;20.05;;
67902;SDS011;54708;43.612;1.568;2023-02-10T03:16:47;33.13;;;20.15;;
67902;SDS011;54708;43.612;1.568;2023-02-10T03:19:12;35.97;;;20.02;;
67902;SDS011;54708;43.612;1.568;2023-02-10T03:21:38;35.55;;;19.80;;
67902;SDS011;54708;43.612;1.568;2023-02-10T03:24:03;36.70;;;20.65;;
67902;SDS011;54708;43.612;1.568;2023-02-10T03:26:29;31.58;;;19.65;;
67902;SDS011;54708;43.612;1.568;2023-02-10T03:28:55;28.95;;;17.25;;
67902;SDS011;54708;43.612;1.568;2023-02-10T03:31:21;28.13;;;18.25;;
67902;SDS011;54708;43.612;1.568;2023-02-10T03:33:46;30.60;;;17.17;;
67902;SDS011;54708;43.612;1.568;2023-02-10T03:36:11;24.58;;;15.85;;
67902;SDS011;54708;43.612;1.568;2023-02-10T03:38:37;26.00;;;16.25;;
67902;SDS011;54708;43.612;1.568;2023-02-10T03:41:02;28.85;;;16.55;;
67902;SDS011;54708;43.612;1.568;2023-02-10T03:43:28;23.63;;;16.00;;
67902;SDS011;54708;43.612;1.568;2023-02-10T03:45:54;24.30;;;15.18;;
67902;SDS011;54708;43.612;1.568;2023-02-10T03:48:19;26.80;;;16.02;;
67902;SDS011;54708;43.612;1.568;2023-02-10T03:50:47;20.45;;;15.23;;
67902;SDS011;54708;43.612;1.568;2023-02-10T03:53:12;24.80;;;16.85;;
67902;SDS011;54708;43.612;1.568;2023-02-10T03:55:38;27.63;;;16.95;;
67902;SDS011;54708;43.612;1.568;2023-02-10T03:58:03;27.73;;;17.42;;
67902;SDS011;54708;43.612;1.568;2023-02-10T04:00:29;24.23;;;17.42;;
67902;SDS011;54708;43.612;1.568;2023-02-10T04:02:55;30.55;;;16.48;;
67902;SDS011;54708;43.612;1.568;2023-02-10T04:05:20;21.17;;;14.43;;
67902;SDS011;54708;43.612;1.568;2023-02-10T04:07:46;26.25;;;15.57;;
67902;SDS011;54708;43.612;1.568;2023-02-10T04:10:11;29.40;;;15.57;;
67902;SDS011;54708;43.612;1.568;2023-02-10T04:12:37;24.25;;;15.07;;
67902;SDS011;54708;43.612;1.568;2023-02-10T04:15:04;26.95;;;17.77;;
67902;SDS011;54708;43.612;1.568;2023-02-10T04:17:30;23.60;;;13.52;;
67902;SDS011;54708;43.612;1.568;2023-02-10T04:19:56;20.02;;;13.70;;
67902;SDS011;54708;43.612;1.568;2023-02-10T04:22:21;21.23;;;14.95;;
67902;SDS011;54708;43.612;1.568;2023-02-10T04:24:46;22.48;;;14.63;;
67902;SDS011;54708;43.612;1.568;2023-02-10T04:27:12;26.00;;;15.68;;
67902;SDS011;54708;43.612;1.568;2023-02-10T04:29:37;19.70;;;14.32;;
67902;SDS011;54708;43.612;1.568;2023-02-10T04:32:05;25.70;;;14.80;;
67902;SDS011;54708;43.612;1.568;2023-02-10T04:34:31;25.20;;;15.50;;
67902;SDS011;54708;43.612;1.568;2023-02-10T04:36:56;22.17;;;15.20;;
67902;SDS011;54708;43.612;1.568;2023-02-10T04:39:22;27.40;;;16.23;;
67902;SDS011;54708;43.612;1.568;2023-02-10T04:41:47;23.73;;;15.88;;
67902;SDS011;54708;43.612;1.568;2023-02-10T04:44:12;26.83;;;15.48;;
67902;SDS011;54708;43.612;1.568;2023-02-10T04:46:38;25.38;;;15.30;;
67902;SDS011;54708;43.612;1.568;2023-02-10T04:49:03;24.73;;;16.52;;
67902;SDS011;54708;43.612;1.568;2023-02-10T04:51:29;33.47;;;16.70;;
67902;SDS011;54708;43.612;1.568;2023-02-10T04:53:54;26.33;;;16.38;;
67902;SDS011;54708;43.612;1.568;2023-02-10T04:56:19;24.90;;;15.70;;
67902;SDS011;54708;43.612;1.568;2023-02-10T04:58:45;29.70;;;16.35;;
67902;SDS011;54708;43.612;1.568;2023-02-10T05:01:11;24.95;;;15.25;;
67902;SDS011;54708;43.612;1.568;2023-02-10T05:03:36;22.90;;;15.65;;
67902;SDS011;54708;43.612;1.568;2023-02-10T05:06:09;23.33;;;16.13;;
67902;SDS011;54708;43.612;1.568;2023-02-10T05:08:36;27.52;;;16.48;;
67902;SDS011;54708;43.612;1.568;2023-02-10T05:11:05;26.25;;;15.13;;
67902;SDS011;54708;43.612;1.568;2023-02-10T05:13:31;30.75;;;18.92;;
67902;SDS011;54708;43.612;1.568;2023-02-10T05:15:57;27.30;;;16.98;;
67902;SDS011;54708;43.612;1.568;2023-02-10T05:18:22;23.95;;;15.75;;
67902;SDS011;54708;43.612;1.568;2023-02-10T05:20:47;28.60;;;17.02;;
67902;SDS011;54708;43.612;1.568;2023-02-10T05:23:13;21.27;;;15.20;;
67902;SDS011;54708;43.612;1.568;2023-02-10T05:25:38;26.73;;;15.68;;
67902;SDS011;54708;43.612;1.568;2023-02-10T05:28:03;28.73;;;15.93;;
67902;SDS011;54708;43.612;1.568;2023-02-10T05:30:29;26.23;;;15.07;;
67902;SDS011;54708;43.612;1.568;2023-02-10T05:32:54;28.17;;;17.05;;
67902;SDS011;54708;43.612;1.568;2023-02-10T05:35:20;25.95;;;16.70;;
67902;SDS011;54708;43.612;1.568;2023-02-10T05:37:45;30.50;;;19.65;;
67902;SDS011;54708;43.612;1.568;2023-02-10T05:40:10;27.25;;;16.40;;
67902;SDS011;54708;43.612;1.568;2023-02-10T05:42:36;26.40;;;17.15;;
67902;SDS011;54708;43.612;1.568;2023-02-10T05:45:01;31.30;;;17.88;;
67902;SDS011;54708;43.612;1.568;2023-02-10T05:47:27;26.38;;;17.17;;
67902;SDS011;54708;43.612;1.568;2023-02-10T05:49:52;26.67;;;16.33;;
67902;SDS011;54708;43.612;1.568;2023-02-10T05:52:18;30.77;;;19.00;;
67902;SDS011;54708;43.612;1.568;2023-02-10T05:54:43;26.92;;;17.13;;
67902;SDS011;54708;43.612;1.568;2023-02-10T05:57:08;27.20;;;17.50;;
67902;SDS011;54708;43.612;1.568;2023-02-10T05:59:34;30.88;;;16.95;;
67902;SDS011;54708;43.612;1.568;2023-02-10T06:01:59;27.60;;;17.40;;
67902;SDS011;54708;43.612;1.568;2023-02-10T06:04:25;27.38;;;15.70;;
67902;SDS011;54708;43.612;1.568;2023-02-10T06:06:50;26.58;;;16.80;;
67902;SDS011;54708;43.612;1.568;2023-02-10T06:09:16;24.23;;;17.20;;
67902;SDS011;54708;43.612;1.568;2023-02-10T06:11:41;30.58;;;18.75;;
67902;SDS011;54708;43.612;1.568;2023-02-10T06:14:07;29.85;;;18.23;;
67902;SDS011;54708;43.612;1.568;2023-02-10T06:16:32;32.63;;;20.05;;
67902;SDS011;54708;43.612;1.568;2023-02-10T06:18:57;31.23;;;17.50;;
67902;SDS011;54708;43.612;1.568;2023-02-10T06:21:23;29.35;;;19.25;;
67902;SDS011;54708;43.612;1.568;2023-02-10T06:23:49;34.45;;;21.85;;
67902;SDS011;54708;43.612;1.568;2023-02-10T06:26:14;37.42;;;19.23;;
67902;SDS011;54708;43.612;1.568;2023-02-10T06:28:40;37.35;;;22.90;;
67902;SDS011;54708;43.612;1.568;2023-02-10T06:31:06;38.75;;;20.63;;
67902;SDS011;54708;43.612;1.568;2023-02-10T06:33:32;34.40;;;18.70;;
67902;SDS011;54708;43.612;1.568;2023-02-10T06:36:00;33.40;;;20.38;;
67902;SDS011;54708;43.612;1.568;2023-02-10T06:38:30;38.53;;;20.30;;
67902;SDS011;54708;43.612;1.568;2023-02-10T06:40:59;42.03;;;20.45;;
67902;SDS011;54708;43.612;1.568;2023-02-10T06:43:24;35.30;;;21.08;;
67902;SDS011;54708;43.612;1.568;2023-02-10T06:45:50;35.95;;;20.77;;
67902;SDS011;54708;43.612;1.568;2023-02-10T06:48:15;44.63;;;21.50;;
67902;SDS011;54708;43.612;1.568;2023-02-10T06:50:40;41.35;;;21.23;;
67902;SDS011;54708;43.612;1.568;2023-02-10T06:53:06;36.28;;;20.42;;
67902;SDS011;54708;43.612;1.568;2023-02-10T06:55:31;43.80;;;22.85;;
67902;SDS011;54708;43.612;1.568;2023-02-10T06:58:00;48.78;;;25.20;;
67902;SDS011;54708;43.612;1.568;2023-02-10T07:00:26;42.15;;;23.70;;
67902;SDS011;54708;43.612;1.568;2023-02-10T07:02:52;46.22;;;23.92;;
67902;SDS011;54708;43.612;1.568;2023-02-10T07:05:18;54.50;;;26.95;;
67902;SDS011;54708;43.612;1.568;2023-02-10T07:07:43;49.10;;;25.40;;
67902;SDS011;54708;43.612;1.568;2023-02-10T07:10:09;56.50;;;27.40;;
67902;SDS011;54708;43.612;1.568;2023-02-10T07:12:34;54.13;;;27.63;;
67902;SDS011;54708;43.612;1.568;2023-02-10T07:15:00;47.35;;;26.50;;
67902;SDS011;54708;43.612;1.568;2023-02-10T07:17:25;64.45;;;30.38;;
67902;SDS011;54708;43.612;1.568;2023-02-10T07:19:51;52.20;;;30.85;;
67902;SDS011;54708;43.612;1.568;2023-02-10T07:22:16;67.05;;;30.73;;
67902;SDS011;54708;43.612;1.568;2023-02-10T07:24:42;69.60;;;32.03;;
67902;SDS011;54708;43.612;1.568;2023-02-10T07:27:07;79.50;;;33.95;;
67902;SDS011;54708;43.612;1.568;2023-02-10T07:29:32;84.78;;;41.63;;
67902;SDS011;54708;43.612;1.568;2023-02-10T07:31:58;83.88;;;40.08;;
67902;SDS011;54708;43.612;1.568;2023-02-10T07:34:24;82.65;;;37.63;;
67902;SDS011;54708;43.612;1.568;2023-02-10T07:36:50;86.15;;;40.05;;
67902;SDS011;54708;43.612;1.568;2023-02-10T07:39:19;84.32;;;40.55;;
67902;SDS011;54708;43.612;1.568;2023-02-10T07:41:45;77.38;;;36.47;;
67902;SDS011;54708;43.612;1.568;2023-02-10T07:44:11;70.22;;;35.05;;
67902;SDS011;54708;43.612;1.568;2023-02-10T07:46:36;72.18;;;33.47;;
67902;SDS011;54708;43.612;1.568;2023-02-10T07:49:02;58.20;;;31.40;;
67902;SDS011;54708;43.612;1.568;2023-02-10T07:51:27;59.47;;;31.90;;
67902;SDS011;54708;43.612;1.568;2023-02-10T07:53:53;161.63;;;73.53;;
67902;SDS011;54708;43.612;1.568;2023-02-10T07:56:18;184.70;;;75.53;;
67902;SDS011;54708;43.612;1.568;2023-02-10T07:58:43;167.27;;;67.85;;
67902;SDS011;54708;43.612;1.568;2023-02-10T08:01:09;132.18;;;57.53;;
67902;SDS011;54708;43.612;1.568;2023-02-10T08:03:35;122.75;;;54.33;;
67902;SDS011;54708;43.612;1.568;2023-02-10T08:06:01;122.13;;;56.47;;
67902;SDS011;54708;43.612;1.568;2023-02-10T08:08:26;104.45;;;49.08;;
67902;SDS011;54708;43.612;1.568;2023-02-10T08:10:52;96.25;;;49.05;;
67902;SDS011;54708;43.612;1.568;2023-02-10T08:13:17;83.20;;;42.80;;
67902;SDS011;54708;43.612;1.568;2023-02-10T08:15:43;70.45;;;37.05;;
67902;SDS011;54708;43.612;1.568;2023-02-10T08:18:08;53.65;;;31.05;;
67902;SDS011;54708;43.612;1.568;2023-02-10T08:20:34;45.47;;;26.45;;
67902;SDS011;54708;43.612;1.568;2023-02-10T08:22:59;47.22;;;28.52;;
67902;SDS011;54708;43.612;1.568;2023-02-10T08:25:25;43.10;;;25.65;;
67902;SDS011;54708;43.612;1.568;2023-02-10T08:27:51;34.33;;;22.55;;
67902;SDS011;54708;43.612;1.568;2023-02-10T08:30:16;37.35;;;24.08;;
67902;SDS011;54708;43.612;1.568;2023-02-10T08:32:42;44.92;;;24.95;;
67902;SDS011;54708;43.612;1.568;2023-02-10T08:35:07;35.72;;;23.48;;
67902;SDS011;54708;43.612;1.568;2023-02-10T08:37:33;33.80;;;22.80;;
67902;SDS011;54708;43.612;1.568;2023-02-10T08:39:59;43.72;;;25.85;;
67902;SDS011;54708;43.612;1.568;2023-02-10T08:42:25;40.03;;;24.23;;
67902;SDS011;54708;43.612;1.568;2023-02-10T08:44:50;44.17;;;26.35;;
67902;SDS011;54708;43.612;1.568;2023-02-10T08:47:16;43.55;;;26.65;;
67902;SDS011;54708;43.612;1.568;2023-02-10T08:49:42;48.03;;;26.35;;
67902;SDS011;54708;43.612;1.568;2023-02-10T08:52:08;35.40;;;22.05;;
67902;SDS011;54708;43.612;1.568;2023-02-10T08:54:34;37.20;;;23.23;;
67902;SDS011;54708;43.612;1.568;2023-02-10T08:56:59;37.05;;;23.70;;
67902;SDS011;54708;43.612;1.568;2023-02-10T08:59:25;60.25;;;27.27;;
67902;SDS011;54708;43.612;1.568;2023-02-10T09:01:50;46.50;;;25.67;;
67902;SDS011;54708;43.612;1.568;2023-02-10T09:04:16;44.45;;;25.00;;
67902;SDS011;54708;43.612;1.568;2023-02-10T09:06:42;51.95;;;27.88;;
67902;SDS011;54708;43.612;1.568;2023-02-10T09:09:12;67.03;;;32.78;;
67902;SDS011;54708;43.612;1.568;2023-02-10T09:11:39;59.05;;;32.03;;
67902;SDS011;54708;43.612;1.568;2023-02-10T09:14:05;67.30;;;34.08;;
67902;SDS011;54708;43.612;1.568;2023-02-10T09:16:30;66.78;;;32.20;;
67902;SDS011;54708;43.612;1.568;2023-02-10T09:18:56;62.33;;;33.72;;
67902;SDS011;54708;43.612;1.568;2023-02-10T09:21:21;60.70;;;30.52;;
67902;SDS011;54708;43.612;1.568;2023-02-10T09:23:47;54.80;;;27.95;;
67902;SDS011;54708;43.612;1.568;2023-02-10T09:26:12;38.13;;;24.85;;
67902;SDS011;54708;43.612;1.568;2023-02-10T09:28:38;38.05;;;23.02;;
67902;SDS011;54708;43.612;1.568;2023-02-10T09:31:04;41.05;;;21.45;;
67902;SDS011;54708;43.612;1.568;2023-02-10T09:33:30;36.80;;;21.92;;
67902;SDS011;54708;43.612;1.568;2023-02-10T09:35:56;37.45;;;20.77;;
67902;SDS011;54708;43.612;1.568;2023-02-10T09:38:21;36.08;;;20.33;;
67902;SDS011;54708;43.612;1.568;2023-02-10T09:41:00;36.22;;;20.38;;
67902;SDS011;54708;43.612;1.568;2023-02-10T09:46:35;37.88;;;18.92;;
67902;SDS011;54708;43.612;1.568;2023-02-10T09:58:01;31.55;;;19.55;;
67902;SDS011;54708;43.612;1.568;2023-02-10T10:00:33;29.08;;;17.08;;
67902;SDS011;54708;43.612;1.568;2023-02-10T10:03:00;33.65;;;18.80;;
67902;SDS011;54708;43.612;1.568;2023-02-10T10:11:42;22.42;;;14.80;;
67902;SDS011;54708;43.612;1.568;2023-02-10T10:14:05;20.48;;;12.93;;
67902;SDS011;54708;43.612;1.568;2023-02-10T10:19:52;23.70;;;13.35;;
67902;SDS011;54708;43.612;1.568;2023-02-10T10:36:01;15.98;;;12.13;;
67902;SDS011;54708;43.612;1.568;2023-02-10T10:38:31;19.67;;;10.80;;
67902;SDS011;54708;43.612;1.568;2023-02-10T10:41:00;18.08;;;11.68;;
67902;SDS011;54708;43.612;1.568;2023-02-10T10:43:29;19.95;;;10.88;;
67902;SDS011;54708;43.612;1.568;2023-02-10T10:45:59;22.08;;;12.15;;
67902;SDS011;54708;43.612;1.568;2023-02-10T10:48:29;21.60;;;11.18;;
67902;SDS011;54708;43.612;1.568;2023-02-10T10:50:58;20.17;;;12.13;;
67902;SDS011;54708;43.612;1.568;2023-02-10T10:53:44;20.30;;;12.57;;
67902;SDS011;54708;43.612;1.568;2023-02-10T10:59:12;20.55;;;12.07;;
67902;SDS011;54708;43.612;1.568;2023-02-10T11:01:45;25.63;;;13.82;;
67902;SDS011;54708;43.612;1.568;2023-02-10T11:04:13;19.70;;;11.50;;
67902;SDS011;54708;43.612;1.568;2023-02-10T11:06:41;16.20;;;11.57;;
67902;SDS011;54708;43.612;1.568;2023-02-10T11:12:05;18.75;;;10.90;;
67902;SDS011;54708;43.612;1.568;2023-02-10T11:14:47;18.05;;;11.38;;
67902;SDS011;54708;43.612;1.568;2023-02-10T11:20:01;15.68;;;9.85;;
67902;SDS011;54708;43.612;1.568;2023-02-10T11:22:38;16.63;;;9.43;;
67902;SDS011;54708;43.612;1.568;2023-02-10T11:27:51;16.17;;;8.55;;
67902;SDS011;54708;43.612;1.568;2023-02-10T11:32:50;11.18;;;7.82;;
67902;SDS011;54708;43.612;1.568;2023-02-10T11:35:16;14.73;;;10.07;;
67902;SDS011;54708;43.612;1.568;2023-02-10T11:37:42;17.05;;;9.82;;
67902;SDS011;54708;43.612;1.568;2023-02-10T11:42:45;18.70;;;11.77;;
67902;SDS011;54708;43.612;1.568;2023-02-10T11:47:42;19.50;;;10.45;;
67902;SDS011;54708;43.612;1.568;2023-02-10T11:50:21;14.82;;;8.73;;
67902;SDS011;54708;43.612;1.568;2023-02-10T11:52:48;16.13;;;8.88;;
67902;SDS011;54708;43.612;1.568;2023-02-10T11:55:14;11.93;;;6.88;;
67902;SDS011;54708;43.612;1.568;2023-02-10T11:57:46;18.20;;;6.78;;
67902;SDS011;54708;43.612;1.568;2023-02-10T12:08:41;9.98;;;6.18;;
67902;SDS011;54708;43.612;1.568;2023-02-10T12:19:55;16.88;;;6.03;;
67902;SDS011;54708;43.612;1.568;2023-02-10T12:25:16;9.20;;;5.78;;
67902;SDS011;54708;43.612;1.568;2023-02-10T12:43:34;6.90;;;4.22;;
67902;SDS011;54708;43.612;1.568;2023-02-10T12:49:18;6.03;;;3.97;;
67902;SDS011;54708;43.612;1.568;2023-02-10T13:00:04;6.82;;;4.07;;
67902;SDS011;54708;43.612;1.568;2023-02-10T13:04:57;4.95;;;3.03;;
67902;SDS011;54708;43.612;1.568;2023-02-10T13:07:37;10.52;;;4.20;;
67902;SDS011;54708;43.612;1.568;2023-02-10T13:13:11;8.25;;;5.28;;
67902;SDS011;54708;43.612;1.568;2023-02-10T13:15:47;12.70;;;4.87;;
67902;SDS011;54708;43.612;1.568;2023-02-10T13:18:19;7.57;;;4.35;;
67902;SDS011;54708;43.612;1.568;2023-02-10T13:20:49;8.68;;;5.25;;
67902;SDS011;54708;43.612;1.568;2023-02-10T13:34:29;11.15;;;5.95;;
67902;SDS011;54708;43.612;1.568;2023-02-10T13:36:58;12.27;;;6.22;;
67902;SDS011;54708;43.612;1.568;2023-02-10T13:39:33;8.65;;;5.07;;
67902;SDS011;54708;43.612;1.568;2023-02-10T13:44:59;11.95;;;6.72;;
67902;SDS011;54708;43.612;1.568;2023-02-10T13:47:29;21.20;;;10.60;;
67902;SDS011;54708;43.612;1.568;2023-02-10T13:50:00;11.60;;;6.95;;
67902;SDS011;54708;43.612;1.568;2023-02-10T13:52:29;10.05;;;5.57;;
67902;SDS011;54708;43.612;1.568;2023-02-10T13:57:32;8.57;;;6.25;;
67902;SDS011;54708;43.612;1.568;2023-02-10T14:00:41;9.98;;;5.45;;
67902;SDS011;54708;43.612;1.568;2023-02-10T14:03:02;7.65;;;5.22;;
67902;SDS011;54708;43.612;1.568;2023-02-10T14:11:38;11.57;;;6.15;;
67902;SDS011;54708;43.612;1.568;2023-02-10T14:13:43;9.57;;;5.32;;
67902;SDS011;54708;43.612;1.568;2023-02-10T14:18:46;10.07;;;4.68;;
67902;SDS011;54708;43.612;1.568;2023-02-10T14:21:38;14.25;;;6.13;;
67902;SDS011;54708;43.612;1.568;2023-02-10T14:24:05;5.93;;;4.07;;
67902;SDS011;54708;43.612;1.568;2023-02-10T14:29:03;12.82;;;5.55;;
67902;SDS011;54708;43.612;1.568;2023-02-10T14:31:33;13.48;;;4.25;;
67902;SDS011;54708;43.612;1.568;2023-02-10T14:34:05;11.90;;;4.30;;
67902;SDS011;54708;43.612;1.568;2023-02-10T14:39:21;6.80;;;4.55;;
67902;SDS011;54708;43.612;1.568;2023-02-10T14:41:48;8.45;;;4.03;;
67902;SDS011;54708;43.612;1.568;2023-02-10T14:44:18;5.65;;;3.45;;
67902;SDS011;54708;43.612;1.568;2023-02-10T14:46:49;6.93;;;4.15;;
67902;SDS011;54708;43.612;1.568;2023-02-10T14:49:15;9.65;;;4.80;;
67902;SDS011;54708;43.612;1.568;2023-02-10T14:51:44;7.13;;;4.38;;
67902;SDS011;54708;43.612;1.568;2023-02-10T14:54:15;10.05;;;4.25;;
67902;SDS011;54708;43.612;1.568;2023-02-10T14:56:53;7.32;;;3.67;;
67902;SDS011;54708;43.612;1.568;2023-02-10T14:59:23;8.68;;;4.88;;
67902;SDS011;54708;43.612;1.568;2023-02-10T15:01:52;9.55;;;4.38;;
67902;SDS011;54708;43.612;1.568;2023-02-10T15:04:18;8.63;;;4.75;;
67902;SDS011;54708;43.612;1.568;2023-02-10T15:06:45;7.88;;;5.70;;
67902;SDS011;54708;43.612;1.568;2023-02-10T15:09:13;8.85;;;5.50;;
67902;SDS011;54708;43.612;1.568;2023-02-10T15:11:43;7.78;;;4.70;;
67902;SDS011;54708;43.612;1.568;2023-02-10T15:14:30;9.32;;;5.22;;
67902;SDS011;54708;43.612;1.568;2023-02-10T15:16:57;11.23;;;5.68;;
67902;SDS011;54708;43.612;1.568;2023-02-10T15:19:23;7.75;;;5.00;;
67902;SDS011;54708;43.612;1.568;2023-02-10T15:21:49;6.68;;;4.60;;
67902;SDS011;54708;43.612;1.568;2023-02-10T15:24:38;6.35;;;4.72;;
67902;SDS011;54708;43.612;1.568;2023-02-10T15:27:18;5.80;;;4.65;;
67902;SDS011;54708;43.612;1.568;2023-02-10T15:29:47;7.40;;;5.00;;
67902;SDS011;54708;43.612;1.568;2023-02-10T15:32:16;6.00;;;4.70;;
67902;SDS011;54708;43.612;1.568;2023-02-10T15:34:43;10.63;;;5.50;;
67902;SDS011;54708;43.612;1.568;2023-02-10T15:37:21;11.90;;;5.13;;
67902;SDS011;54708;43.612;1.568;2023-02-10T15:39:59;7.03;;;4.88;;
67902;SDS011;54708;43.612;1.568;2023-02-10T15:42:29;10.63;;;5.28;;
67902;SDS011;54708;43.612;1.568;2023-02-10T15:45:11;9.05;;;4.70;;
67902;SDS011;54708;43.612;1.568;2023-02-10T15:47:44;7.13;;;4.32;;
67902;SDS011;54708;43.612;1.568;2023-02-10T15:50:11;9.75;;;5.63;;
67902;SDS011;54708;43.612;1.568;2023-02-10T15:52:55;12.43;;;5.47;;
67902;SDS011;54708;43.612;1.568;2023-02-10T15:55:29;8.75;;;5.20;;
67902;SDS011;54708;43.612;1.568;2023-02-10T15:57:56;6.78;;;4.85;;
67902;SDS011;54708;43.612;1.568;2023-02-10T16:00:23;12.23;;;4.78;;
67902;SDS011;54708;43.612;1.568;2023-02-10T16:02:50;10.07;;;5.38;;
67902;SDS011;54708;43.612;1.568;2023-02-10T16:05:15;8.52;;;5.20;;
67902;SDS011;54708;43.612;1.568;2023-02-10T16:07:41;8.20;;;5.43;;
67902;SDS011;54708;43.612;1.568;2023-02-10T16:10:10;9.23;;;4.95;;
67902;SDS011;54708;43.612;1.568;2023-02-10T16:15:04;8.55;;;5.38;;
67902;SDS011;54708;43.612;1.568;2023-02-10T16:17:31;6.75;;;5.13;;
67902;SDS011;54708;43.612;1.568;2023-02-10T16:22:28;10.80;;;6.20;;
67902;SDS011;54708;43.612;1.568;2023-02-10T16:24:54;9.05;;;4.15;;
67902;SDS011;54708;43.612;1.568;2023-02-10T16:27:19;5.05;;;4.55;;
67902;SDS011;54708;43.612;1.568;2023-02-10T16:29:45;8.30;;;4.88;;
67902;SDS011;54708;43.612;1.568;2023-02-10T16:32:11;6.95;;;4.97;;
67902;SDS011;54708;43.612;1.568;2023-02-10T16:34:37;10.45;;;7.35;;
67902;SDS011;54708;43.612;1.568;2023-02-10T16:37:02;10.68;;;5.20;;
67902;SDS011;54708;43.612;1.568;2023-02-10T16:39:28;6.65;;;5.05;;
67902;SDS011;54708;43.612;1.568;2023-02-10T16:41:55;8.77;;;5.20;;
67902;SDS011;54708;43.612;1.568;2023-02-10T16:44:20;8.48;;;4.40;;
67902;SDS011;54708;43.612;1.568;2023-02-10T16:46:46;14.27;;;6.18;;
67902;SDS011;54708;43.612;1.568;2023-02-10T16:49:12;21.13;;;10.38;;
67902;SDS011;54708;43.612;1.568;2023-02-10T16:51:39;27.83;;;15.77;;
67902;SDS011;54708;43.612;1.568;2023-02-10T16:54:06;12.05;;;7.20;;
67902;SDS011;54708;43.612;1.568;2023-02-10T16:56:35;11.45;;;4.80;;
67902;SDS011;54708;43.612;1.568;2023-02-10T16:59:02;7.38;;;4.70;;
67902;SDS011;54708;43.612;1.568;2023-02-10T17:01:28;7.13;;;5.00;;
67902;SDS011;54708;43.612;1.568;2023-02-10T17:03:55;9.68;;;5.65;;
67902;SDS011;54708;43.612;1.568;2023-02-10T17:06:21;8.23;;;4.57;;
67902;SDS011;54708;43.612;1.568;2023-02-10T17:08:46;7.88;;;4.10;;
67902;SDS011;54708;43.612;1.568;2023-02-10T17:11:12;8.15;;;5.05;;
67902;SDS011;54708;43.612;1.568;2023-02-10T17:13:38;11.98;;;5.63;;
67902;SDS011;54708;43.612;1.568;2023-02-10T17:16:04;12.25;;;6.47;;
67902;SDS011;54708;43.612;1.568;2023-02-10T17:18:29;8.45;;;4.97;;
67902;SDS011;54708;43.612;1.568;2023-02-10T17:20:55;9.55;;;5.05;;
67902;SDS011;54708;43.612;1.568;2023-02-10T17:23:20;9.13;;;5.57;;